createdAt,value
2023-05-22T00:00:41.314Z,23.94
2023-05-22T00:01:41.175Z,23.94
2023-05-22T00:02:41.309Z,23.93
2023-05-22T00:03:41.259Z,23.94
2023-05-22T00:04:41.285Z,23.93
2023-05-22T00:05:41.378Z,23.93
2023-05-22T00:06:41.368Z,23.93
2023-05-22T00:07:41.382Z,23.93
2023-05-22T00:08:41.420Z,23.93
2023-05-22T00:09:41.459Z,23.93
2023-05-22T00:10:41.683Z,23.93
2023-05-22T00:11:41.587Z,23.92
2023-05-22T00:12:41.607Z,23.92
2023-05-22T00:13:41.672Z,23.92
2023-05-22T00:14:41.712Z,23.92
2023-05-22T00:15:41.746Z,23.92
2023-05-22T00:16:41.811Z,23.91
2023-05-22T00:17:41.882Z,23.92
2023-05-22T00:18:41.881Z,23.92
2023-05-22T00:19:41.917Z,23.92
2023-05-22T00:20:41.959Z,23.92
2023-05-22T00:21:41.972Z,23.92
2023-05-22T00:22:42.042Z,23.92
2023-05-22T00:23:42.067Z,23.91
2023-05-22T00:24:42.115Z,23.90
2023-05-22T00:25:42.156Z,23.91
2023-05-22T00:26:42.209Z,23.90
2023-05-22T00:27:42.220Z,23.90
2023-05-22T00:28:42.268Z,23.90
2023-05-22T00:29:42.314Z,23.90
2023-05-22T00:30:42.481Z,23.91
2023-05-22T00:31:42.411Z,23.91
2023-05-22T00:32:42.461Z,23.90
2023-05-22T00:33:42.440Z,23.89
2023-05-22T00:34:42.676Z,23.89
2023-05-22T00:35:42.532Z,23.88
2023-05-22T00:36:42.576Z,23.89
2023-05-22T00:37:42.615Z,23.89
2023-05-22T00:38:42.656Z,23.88
2023-05-22T00:39:42.688Z,23.88
2023-05-22T00:40:42.746Z,23.88
2023-05-22T00:41:42.786Z,23.88
2023-05-22T00:42:42.837Z,23.88
2023-05-22T00:43:42.868Z,23.88
2023-05-22T00:44:42.913Z,23.88
2023-05-22T00:45:42.909Z,23.88
2023-05-22T00:46:43.014Z,23.89
2023-05-22T00:47:43.062Z,23.89
2023-05-22T00:48:43.079Z,23.88
2023-05-22T00:49:43.143Z,23.88
2023-05-22T00:50:43.174Z,23.88
2023-05-22T00:51:43.201Z,23.88
2023-05-22T00:52:43.253Z,23.88
2023-05-22T00:53:43.244Z,23.89
2023-05-22T00:54:43.346Z,23.89
2023-05-22T00:55:43.363Z,23.89
2023-05-22T00:56:43.419Z,23.88
2023-05-22T00:57:43.430Z,23.88
2023-05-22T00:58:43.478Z,23.88
2023-05-22T00:59:43.526Z,23.89
2023-05-22T01:00:43.580Z,23.89
2023-05-22T01:01:43.661Z,23.89
2023-05-22T01:02:43.789Z,23.89
2023-05-22T01:03:43.779Z,23.90
2023-05-22T01:04:43.748Z,23.90
2023-05-22T01:05:43.828Z,23.90
2023-05-22T01:06:43.828Z,23.90
2023-05-22T01:07:43.871Z,23.90
2023-05-22T01:08:43.903Z,23.90
2023-05-22T01:09:43.922Z,23.91
2023-05-22T01:10:44.001Z,23.91
2023-05-22T01:11:44.060Z,23.91
2023-05-22T01:12:44.104Z,23.92
2023-05-22T01:13:44.144Z,23.93
2023-05-22T01:14:44.182Z,23.93
2023-05-22T01:15:44.245Z,23.95
2023-05-22T01:16:44.253Z,23.96
2023-05-22T01:17:44.289Z,23.96
2023-05-22T01:18:44.336Z,23.98
2023-05-22T01:19:44.361Z,23.99
2023-05-22T01:20:44.790Z,24.00
2023-05-22T01:21:44.452Z,24.00
2023-05-22T01:22:44.495Z,24.01
2023-05-22T01:23:44.509Z,24.02
2023-05-22T01:24:44.550Z,24.03
2023-05-22T01:25:44.573Z,24.04
2023-05-22T01:26:44.634Z,24.04
2023-05-22T01:27:44.666Z,24.06
2023-05-22T01:28:44.683Z,24.07
2023-05-22T01:29:44.700Z,24.09
2023-05-22T01:30:44.748Z,24.11
2023-05-22T01:31:44.801Z,24.12
2023-05-22T01:32:44.862Z,24.13
2023-05-22T01:33:44.922Z,24.16
2023-05-22T01:34:44.841Z,24.17
2023-05-22T01:35:44.893Z,24.18
2023-05-22T01:36:44.922Z,24.19
2023-05-22T01:37:44.921Z,24.20
2023-05-22T01:38:44.966Z,24.22
2023-05-22T01:39:45.006Z,24.23
2023-05-22T01:40:45.042Z,24.24
2023-05-22T01:41:45.064Z,24.26
2023-05-22T01:42:45.061Z,24.27
2023-05-22T01:43:45.063Z,24.27
2023-05-22T01:44:45.100Z,24.28
2023-05-22T01:45:45.135Z,24.29
2023-05-22T01:46:45.124Z,24.30
2023-05-22T01:47:45.280Z,24.30
2023-05-22T01:48:45.167Z,24.31
2023-05-22T01:49:45.175Z,24.31
2023-05-22T01:50:45.221Z,24.32
2023-05-22T01:51:45.215Z,24.33
2023-05-22T01:52:45.235Z,24.33
2023-05-22T01:53:45.225Z,24.34
2023-05-22T01:54:45.245Z,24.35
2023-05-22T01:55:45.267Z,24.36
2023-05-22T01:56:45.282Z,24.36
2023-05-22T01:57:45.337Z,24.37
2023-05-22T01:58:45.308Z,24.37
2023-05-22T01:59:45.380Z,24.37
2023-05-22T02:00:45.623Z,24.38
2023-05-22T02:01:45.436Z,24.38
2023-05-22T02:02:45.503Z,24.39
2023-05-22T02:03:45.451Z,24.40
2023-05-22T02:04:45.426Z,24.40
2023-05-22T02:05:45.423Z,24.41
2023-05-22T02:06:45.437Z,24.41
2023-05-22T02:07:45.449Z,24.41
2023-05-22T02:08:45.470Z,24.42
2023-05-22T02:09:45.489Z,24.41
2023-05-22T02:10:45.498Z,24.42
2023-05-22T02:11:45.494Z,24.43
2023-05-22T02:12:45.530Z,24.42
2023-05-22T02:13:45.528Z,24.44
2023-05-22T02:14:45.504Z,24.45
2023-05-22T02:15:45.591Z,24.45
2023-05-22T02:16:45.527Z,24.45
2023-05-22T02:17:45.683Z,24.45
2023-05-22T02:18:45.567Z,24.46
2023-05-22T02:19:45.551Z,24.47
2023-05-22T02:20:45.575Z,24.47
2023-05-22T02:21:45.592Z,24.47
2023-05-22T02:22:45.576Z,24.48
2023-05-22T02:23:45.607Z,24.49
2023-05-22T02:24:45.574Z,24.49
2023-05-22T02:25:45.593Z,24.49
2023-05-22T02:26:45.629Z,24.50
2023-05-22T02:27:45.694Z,24.51
2023-05-22T02:28:45.640Z,24.51
2023-05-22T02:29:45.657Z,24.50
2023-05-22T02:30:45.663Z,24.51
2023-05-22T02:31:45.784Z,24.51
2023-05-22T02:32:45.754Z,24.51
2023-05-22T02:33:45.718Z,24.52
2023-05-22T02:34:45.747Z,24.52
2023-05-22T02:35:45.746Z,24.51
2023-05-22T02:36:45.779Z,24.52
2023-05-22T02:37:45.778Z,24.52
2023-05-22T02:38:45.802Z,24.53
2023-05-22T02:39:45.784Z,24.52
2023-05-22T02:40:45.784Z,24.53
2023-05-22T02:41:45.822Z,24.51
2023-05-22T02:42:45.831Z,24.51
2023-05-22T02:43:45.826Z,24.50
2023-05-22T02:44:45.827Z,24.51
2023-05-22T02:45:45.862Z,24.51
2023-05-22T02:46:45.908Z,24.50
2023-05-22T02:47:45.874Z,24.51
2023-05-22T02:48:45.869Z,24.51
2023-05-22T02:49:45.864Z,24.51
2023-05-22T02:50:45.903Z,24.51
2023-05-22T02:51:45.915Z,24.51
2023-05-22T02:52:45.940Z,24.51
2023-05-22T02:53:46.077Z,24.51
2023-05-22T02:54:46.461Z,24.51
2023-05-22T02:55:45.979Z,24.51
2023-05-22T02:56:46.041Z,24.51
2023-05-22T02:57:46.057Z,24.52
2023-05-22T02:58:46.058Z,24.52
2023-05-22T02:59:46.109Z,24.51
2023-05-22T03:00:46.117Z,24.51
2023-05-22T03:01:46.179Z,24.51
2023-05-22T03:02:46.209Z,24.51
2023-05-22T03:03:46.229Z,24.51
2023-05-22T03:04:46.181Z,24.51
2023-05-22T03:05:46.195Z,24.51
2023-05-22T03:06:46.254Z,24.51
2023-05-22T03:07:48.648Z,24.51
2023-05-22T03:08:46.467Z,24.51
2023-05-22T03:09:46.481Z,24.51
2023-05-22T03:10:46.490Z,24.51
2023-05-22T03:11:46.508Z,24.51
2023-05-22T03:12:46.564Z,24.51
2023-05-22T03:13:46.531Z,24.51
2023-05-22T03:14:46.534Z,24.51
2023-05-22T03:15:46.586Z,24.51
2023-05-22T03:16:46.614Z,24.51
2023-05-22T03:17:46.664Z,24.50
2023-05-22T03:18:46.684Z,24.51
2023-05-22T03:19:46.664Z,24.51
2023-05-22T03:20:46.676Z,24.51
2023-05-22T03:21:46.679Z,24.51
2023-05-22T03:22:46.671Z,24.51
2023-05-22T03:23:46.704Z,24.51
2023-05-22T03:24:46.718Z,24.51
2023-05-22T03:25:46.732Z,24.50
2023-05-22T03:26:46.748Z,24.50
2023-05-22T03:27:46.783Z,24.50
2023-05-22T03:28:46.849Z,24.50
2023-05-22T03:29:46.824Z,24.51
2023-05-22T03:30:46.799Z,24.50
2023-05-22T03:31:46.834Z,24.50
2023-05-22T03:32:46.893Z,24.50
2023-05-22T03:33:46.842Z,24.49
2023-05-22T03:34:46.854Z,24.50
2023-05-22T03:35:46.878Z,24.49
2023-05-22T03:36:46.904Z,24.50
2023-05-22T03:37:46.908Z,24.49
2023-05-22T03:38:46.899Z,24.49
2023-05-22T03:39:46.927Z,24.49
2023-05-22T03:40:46.946Z,24.49
2023-05-22T03:41:46.902Z,24.49
2023-05-22T03:42:46.959Z,24.49
2023-05-22T03:43:46.970Z,24.49
2023-05-22T03:44:46.958Z,24.49
2023-05-22T03:45:47.052Z,24.49
2023-05-22T03:46:47.000Z,24.49
2023-05-22T03:47:46.993Z,24.49
2023-05-22T03:48:47.044Z,24.48
2023-05-22T03:49:47.024Z,24.48
2023-05-22T03:50:47.036Z,24.49
2023-05-22T03:51:47.055Z,24.48
2023-05-22T03:52:47.070Z,24.47
2023-05-22T03:53:47.086Z,24.47
2023-05-22T03:54:47.102Z,24.48
2023-05-22T03:55:47.082Z,24.47
2023-05-22T03:56:47.144Z,24.46
2023-05-22T03:57:47.147Z,24.45
2023-05-22T03:58:47.160Z,24.46
2023-05-22T03:59:47.253Z,24.45
2023-05-22T04:00:47.194Z,24.45
2023-05-22T04:01:47.210Z,24.45
2023-05-22T04:02:47.279Z,24.45
2023-05-22T04:03:47.221Z,24.44
2023-05-22T04:04:47.244Z,24.45
2023-05-22T04:05:47.275Z,24.45
2023-05-22T04:06:47.266Z,24.44
2023-05-22T04:07:47.274Z,24.45
2023-05-22T04:08:47.298Z,24.44
2023-05-22T04:09:47.285Z,24.45
2023-05-22T04:10:47.436Z,24.45
2023-05-22T04:11:47.312Z,24.44
2023-05-22T04:12:47.310Z,24.45
2023-05-22T04:13:47.345Z,24.44
2023-05-22T04:14:47.369Z,24.45
2023-05-22T04:15:47.405Z,24.44
2023-05-22T04:16:50.287Z,24.44
2023-05-22T04:17:47.449Z,24.45
2023-05-22T04:18:47.414Z,24.45
2023-05-22T04:19:47.347Z,24.44
2023-05-22T04:20:47.341Z,24.44
2023-05-22T04:21:47.314Z,24.44
2023-05-22T04:22:47.327Z,24.45
2023-05-22T04:23:47.333Z,24.44
2023-05-22T04:24:47.285Z,24.45
2023-05-22T04:25:47.262Z,24.45
2023-05-22T04:26:47.320Z,24.45
2023-05-22T04:27:47.275Z,24.45
2023-05-22T04:28:47.246Z,24.45
2023-05-22T04:29:47.241Z,24.45
2023-05-22T04:30:47.227Z,24.45
2023-05-22T04:31:47.208Z,24.44
2023-05-22T04:32:47.236Z,24.44
2023-05-22T04:33:47.230Z,24.45
2023-05-22T04:34:47.218Z,24.44
2023-05-22T04:35:47.213Z,24.44
2023-05-22T04:36:47.240Z,24.44
2023-05-22T04:37:47.241Z,24.44
2023-05-22T04:38:47.234Z,24.44
2023-05-22T04:39:47.248Z,24.43
2023-05-22T04:40:47.246Z,24.43
2023-05-22T04:41:47.218Z,24.43
2023-05-22T04:42:47.325Z,24.43
2023-05-22T04:43:47.219Z,24.43
2023-05-22T04:44:47.249Z,24.44
2023-05-22T04:45:47.228Z,24.44
2023-05-22T04:46:47.259Z,24.44
2023-05-22T04:47:47.264Z,24.44
2023-05-22T04:48:47.164Z,24.44
2023-05-22T04:49:47.148Z,24.44
2023-05-22T04:50:47.167Z,24.44
2023-05-22T04:51:47.146Z,24.44
2023-05-22T04:52:47.147Z,24.44
2023-05-22T04:53:47.109Z,24.44
2023-05-22T04:54:47.112Z,24.44
2023-05-22T04:55:47.120Z,24.44
2023-05-22T04:56:47.125Z,24.44
2023-05-22T04:57:47.122Z,24.44
2023-05-22T04:58:47.146Z,24.44
2023-05-22T04:59:47.081Z,24.45
2023-05-22T05:00:54.085Z,24.44
2023-05-22T05:01:47.160Z,24.45
2023-05-22T05:02:47.129Z,24.45
2023-05-22T05:03:47.097Z,24.45
2023-05-22T05:04:47.079Z,24.46
2023-05-22T05:05:47.047Z,24.45
2023-05-22T05:06:47.068Z,24.46
2023-05-22T05:07:49.209Z,24.45
2023-05-22T05:08:47.052Z,24.46
2023-05-22T05:09:47.053Z,24.45
2023-05-22T05:10:46.999Z,24.46
2023-05-22T05:11:47.027Z,24.45
2023-05-22T05:12:46.983Z,24.45
2023-05-22T05:13:46.955Z,24.46
2023-05-22T05:14:46.969Z,24.45
2023-05-22T05:15:46.955Z,24.45
2023-05-22T05:16:46.999Z,24.45
2023-05-22T05:17:47.030Z,24.46
2023-05-22T05:18:46.958Z,24.45
2023-05-22T05:19:46.929Z,24.45
2023-05-22T05:20:46.935Z,24.46
2023-05-22T05:21:46.914Z,24.46
2023-05-22T05:22:46.933Z,24.46
2023-05-22T05:23:46.906Z,24.46
2023-05-22T05:24:46.867Z,24.46
2023-05-22T05:25:46.859Z,24.46
2023-05-22T05:26:46.857Z,24.47
2023-05-22T05:27:46.844Z,24.47
2023-05-22T05:28:46.851Z,24.47
2023-05-22T05:29:46.825Z,24.47
2023-05-22T05:30:46.836Z,24.47
2023-05-22T05:31:46.860Z,24.47
2023-05-22T05:32:46.838Z,24.47
2023-05-22T05:33:46.868Z,24.47
2023-05-22T05:34:46.802Z,24.48
2023-05-22T05:35:46.816Z,24.46
2023-05-22T05:36:46.790Z,24.47
2023-05-22T05:37:46.806Z,24.46
2023-05-22T05:38:46.912Z,24.47
2023-05-22T05:39:46.781Z,24.47
2023-05-22T05:40:46.780Z,24.45
2023-05-22T05:41:46.783Z,24.45
2023-05-22T05:42:46.744Z,24.46
2023-05-22T05:43:46.895Z,24.47
2023-05-22T05:44:46.773Z,24.47
2023-05-22T05:47:05.771Z,24.53
2023-05-22T05:48:05.609Z,24.61
2023-05-22T05:49:05.716Z,24.68
2023-05-22T05:50:05.576Z,24.73
2023-05-22T05:51:05.561Z,24.80
2023-05-22T05:52:06.554Z,24.84
2023-05-22T05:53:05.503Z,24.90
2023-05-22T05:54:05.849Z,24.98
2023-05-22T05:55:05.527Z,25.00
2023-05-22T05:56:05.519Z,25.06
2023-05-22T05:57:05.486Z,25.11
2023-05-22T05:58:05.463Z,25.16
2023-05-22T05:59:05.759Z,25.22
2023-05-22T06:00:05.474Z,25.25
2023-05-22T06:01:07.242Z,25.27
2023-05-22T06:02:05.436Z,25.29
2023-05-22T06:03:05.473Z,25.31
2023-05-22T06:04:05.587Z,25.32
2023-05-22T06:05:05.430Z,25.34
2023-05-22T06:06:05.526Z,25.36
2023-05-22T06:07:05.375Z,25.36
2023-05-22T06:08:05.380Z,25.37
2023-05-22T06:09:05.333Z,25.37
2023-05-22T06:10:05.364Z,25.36
2023-05-22T06:11:05.280Z,25.37
2023-05-22T06:12:05.302Z,25.37
2023-05-22T06:13:05.260Z,25.38
2023-05-22T06:14:05.288Z,25.39
2023-05-22T06:15:05.225Z,25.39
2023-05-22T06:16:06.774Z,25.40
2023-05-22T06:17:05.238Z,25.40
2023-05-22T06:18:05.312Z,25.40
2023-05-22T06:19:05.348Z,25.42
2023-05-22T06:20:05.749Z,25.42
2023-05-22T06:21:05.326Z,25.43
2023-05-22T06:22:05.309Z,25.44
2023-05-22T06:23:05.327Z,25.45
2023-05-22T06:24:05.392Z,25.46
2023-05-22T06:25:05.768Z,25.46
2023-05-22T06:26:05.401Z,25.48
2023-05-22T06:27:05.420Z,25.48
2023-05-22T06:28:05.427Z,25.50
2023-05-22T06:29:05.604Z,25.51
2023-05-22T06:30:05.478Z,25.52
2023-05-22T06:31:05.471Z,25.53
2023-05-22T06:32:05.507Z,25.54
2023-05-22T06:33:05.600Z,25.54
2023-05-22T06:34:05.613Z,25.56
2023-05-22T06:35:05.538Z,25.56
2023-05-22T06:36:05.547Z,25.56
2023-05-22T06:37:05.570Z,25.57
2023-05-22T06:38:05.602Z,25.58
2023-05-22T06:39:05.560Z,25.59
2023-05-22T06:40:05.751Z,25.57
2023-05-22T06:41:05.561Z,25.57
2023-05-22T06:42:05.628Z,25.58
2023-05-22T06:43:05.658Z,25.59
2023-05-22T06:44:05.613Z,25.60
2023-05-22T06:45:05.650Z,25.60
2023-05-22T06:46:06.307Z,25.60
2023-05-22T06:47:05.657Z,25.60
2023-05-22T06:48:05.728Z,25.61
2023-05-22T06:49:05.696Z,25.61
2023-05-22T06:50:05.746Z,25.62
2023-05-22T06:51:05.857Z,25.64
2023-05-22T06:52:05.683Z,25.66
2023-05-22T06:53:05.677Z,25.65
2023-05-22T06:54:05.723Z,25.61
2023-05-22T06:55:05.821Z,25.59
2023-05-22T06:56:05.800Z,25.61
2023-05-22T06:57:05.778Z,25.60
2023-05-22T06:58:05.736Z,25.61
2023-05-22T06:59:06.430Z,25.59
2023-05-22T07:00:05.760Z,25.58
2023-05-22T07:01:05.820Z,25.57
2023-05-22T07:02:05.779Z,25.55
2023-05-22T07:03:05.835Z,25.53
2023-05-22T07:04:05.794Z,25.51
2023-05-22T07:05:05.742Z,25.52
2023-05-22T07:06:05.813Z,25.52
2023-05-22T07:07:05.873Z,25.52
2023-05-22T07:08:05.840Z,25.52
2023-05-22T07:09:05.857Z,25.53
2023-05-22T07:10:05.925Z,25.54
2023-05-22T07:11:05.860Z,25.55
2023-05-22T07:12:05.878Z,25.54
2023-05-22T07:13:05.939Z,25.53
2023-05-22T07:14:05.953Z,25.54
2023-05-22T07:15:06.307Z,25.56
2023-05-22T07:16:05.982Z,25.59
2023-05-22T07:17:06.301Z,25.62
2023-05-22T07:18:06.094Z,25.64
2023-05-22T07:19:06.091Z,25.66
2023-05-22T07:20:05.992Z,25.68
2023-05-22T07:21:06.039Z,25.69
2023-05-22T07:22:06.055Z,25.73
2023-05-22T07:23:06.062Z,25.78
2023-05-22T07:24:06.012Z,25.83
2023-05-22T07:25:06.051Z,25.87
2023-05-22T07:26:06.075Z,25.90
2023-05-22T07:27:06.027Z,25.94
2023-05-22T07:28:06.043Z,25.97
2023-05-22T07:29:06.020Z,26.00
2023-05-22T07:30:06.295Z,26.02
2023-05-22T07:31:06.009Z,26.05
2023-05-22T07:32:06.025Z,26.09
2023-05-22T07:33:06.062Z,26.09
2023-05-22T07:34:06.004Z,26.12
2023-05-22T07:35:05.990Z,26.13
2023-05-22T07:36:05.960Z,26.16
2023-05-22T07:37:06.009Z,26.19
2023-05-22T07:38:06.017Z,26.19
2023-05-22T07:39:05.992Z,26.16
2023-05-22T07:40:05.966Z,26.11
2023-05-22T07:41:05.957Z,26.05
2023-05-22T07:42:05.979Z,25.99
2023-05-22T07:43:05.974Z,25.97
2023-05-22T07:44:06.024Z,25.94
2023-05-22T07:45:06.310Z,25.94
2023-05-22T07:46:06.033Z,25.94
2023-05-22T07:47:06.026Z,25.95
2023-05-22T07:48:06.062Z,25.96
2023-05-22T07:49:06.000Z,25.97
2023-05-22T07:50:06.044Z,25.98
2023-05-22T07:51:06.005Z,26.00
2023-05-22T07:52:06.017Z,25.99
2023-05-22T07:53:05.956Z,26.00
2023-05-22T07:54:05.946Z,26.01
2023-05-22T07:55:06.046Z,26.00
2023-05-22T07:56:05.970Z,26.01
2023-05-22T07:57:05.961Z,26.05
2023-05-22T07:58:05.978Z,26.07
2023-05-22T07:59:05.945Z,26.09
2023-05-22T08:00:06.298Z,26.10
2023-05-22T08:01:08.033Z,26.11
2023-05-22T08:02:05.975Z,26.11
2023-05-22T08:03:05.902Z,26.12
2023-05-22T08:04:06.049Z,26.13
2023-05-22T08:05:06.331Z,26.13
2023-05-22T08:06:05.817Z,26.14
2023-05-22T08:07:05.772Z,26.13
2023-05-22T08:08:05.820Z,26.15
2023-05-22T08:09:06.807Z,26.16
2023-05-22T08:10:05.718Z,26.19
2023-05-22T08:11:06.003Z,26.20
2023-05-22T08:12:05.630Z,26.22
2023-05-22T08:13:05.626Z,26.24
2023-05-22T08:14:05.579Z,26.27
2023-05-22T08:15:05.544Z,26.29
2023-05-22T08:16:05.588Z,26.30
2023-05-22T08:17:05.604Z,26.31
2023-05-22T08:18:05.456Z,26.34
2023-05-22T08:19:05.601Z,26.37
2023-05-22T08:20:05.724Z,26.39
2023-05-22T08:21:05.786Z,26.40
2023-05-22T08:22:05.430Z,26.42
2023-05-22T08:23:05.462Z,26.43
2023-05-22T08:24:05.523Z,26.43
2023-05-22T08:25:05.536Z,26.45
2023-05-22T08:26:05.823Z,26.46
2023-05-22T08:27:05.767Z,26.48
2023-05-22T08:28:05.586Z,26.49
2023-05-22T08:29:05.576Z,26.50
2023-05-22T08:30:05.622Z,26.53
2023-05-22T08:31:05.831Z,26.53
2023-05-22T08:32:05.804Z,26.52
2023-05-22T08:33:05.695Z,26.50
2023-05-22T08:34:05.676Z,26.49
2023-05-22T08:35:05.693Z,26.47
2023-05-22T08:36:05.697Z,26.46
2023-05-22T08:37:05.708Z,26.44
2023-05-22T08:38:05.712Z,26.42
2023-05-22T08:39:05.679Z,26.39
2023-05-22T08:40:05.682Z,26.37
2023-05-22T08:41:05.730Z,26.31
2023-05-22T08:42:05.689Z,26.19
2023-05-22T08:43:05.705Z,26.04
2023-05-22T08:44:05.637Z,25.97
2023-05-22T08:45:05.658Z,25.83
2023-05-22T08:46:05.699Z,25.78
2023-05-22T08:47:05.699Z,25.76
2023-05-22T08:48:05.774Z,25.75
2023-05-22T08:49:05.667Z,25.76
2023-05-22T08:50:05.726Z,25.78
2023-05-22T08:51:05.973Z,25.77
2023-05-22T08:52:05.751Z,25.78
2023-05-22T08:53:05.765Z,25.82
2023-05-22T08:54:05.883Z,25.88
2023-05-22T08:55:05.794Z,25.93
2023-05-22T08:56:05.789Z,25.95
2023-05-22T08:57:05.784Z,25.95
2023-05-22T08:58:05.759Z,25.94
2023-05-22T08:59:05.768Z,25.94
2023-05-22T09:00:05.793Z,25.92
2023-05-22T09:01:05.801Z,25.91
2023-05-22T09:02:06.821Z,25.89
2023-05-22T09:03:05.866Z,25.89
2023-05-22T09:04:05.874Z,25.88
2023-05-22T09:05:05.756Z,25.89
2023-05-22T09:06:05.747Z,25.89
2023-05-22T09:07:06.008Z,25.90
2023-05-22T09:08:19.256Z,25.90
2023-05-22T09:09:06.705Z,25.92
2023-05-22T09:10:05.651Z,25.92
2023-05-22T09:11:05.799Z,25.93
2023-05-22T09:12:05.603Z,25.92
2023-05-22T09:13:05.660Z,25.92
2023-05-22T09:14:05.550Z,25.93
2023-05-22T09:15:05.533Z,25.93
2023-05-22T09:16:05.812Z,25.94
2023-05-22T09:17:05.478Z,25.95
2023-05-22T09:18:05.435Z,25.96
2023-05-22T09:19:05.434Z,25.97
2023-05-22T09:20:05.431Z,25.98
2023-05-22T09:21:11.307Z,25.98
2023-05-22T09:22:06.273Z,25.98
2023-05-22T09:23:05.275Z,25.98
2023-05-22T09:24:05.208Z,25.99
2023-05-22T09:25:05.243Z,26.01
2023-05-22T09:26:05.159Z,26.02
2023-05-22T09:27:05.132Z,26.01
2023-05-22T09:28:05.096Z,26.04
2023-05-22T09:29:05.067Z,26.04
2023-05-22T09:30:05.037Z,26.05
2023-05-22T09:31:05.074Z,26.05
2023-05-22T09:32:04.953Z,26.07
2023-05-22T09:33:05.049Z,26.07
2023-05-22T09:34:04.930Z,26.08
2023-05-22T09:35:04.894Z,26.09
2023-05-22T09:36:04.912Z,26.09
2023-05-22T09:37:04.813Z,26.10
2023-05-22T09:38:04.810Z,26.11
2023-05-22T09:39:04.836Z,26.13
2023-05-22T09:40:04.805Z,26.13
2023-05-22T09:41:04.827Z,26.13
2023-05-22T09:42:04.774Z,26.14
2023-05-22T09:43:04.753Z,26.14
2023-05-22T09:44:04.775Z,26.12
2023-05-22T09:45:04.784Z,26.11
2023-05-22T09:46:04.824Z,26.11
2023-05-22T09:47:04.756Z,26.11
2023-05-22T09:48:04.747Z,26.12
2023-05-22T09:49:04.769Z,26.12
2023-05-22T09:50:04.787Z,26.14
2023-05-22T09:51:04.708Z,26.15
2023-05-22T09:52:04.709Z,26.16
2023-05-22T09:53:04.735Z,26.16
2023-05-22T09:54:04.713Z,26.19
2023-05-22T09:55:04.726Z,26.19
2023-05-22T09:56:04.754Z,26.21
2023-05-22T09:57:04.704Z,26.22
2023-05-22T09:58:04.707Z,26.23
2023-05-22T09:59:04.747Z,26.24
2023-05-22T10:00:04.739Z,26.25
2023-05-22T10:01:05.373Z,26.26
2023-05-22T10:02:04.854Z,26.26
2023-05-22T10:03:04.771Z,26.28
2023-05-22T10:04:04.716Z,26.28
2023-05-22T10:05:04.709Z,26.29
2023-05-22T10:06:04.871Z,26.29
2023-05-22T10:07:04.684Z,26.30
2023-05-22T10:08:04.697Z,26.31
2023-05-22T10:09:04.704Z,26.32
2023-05-22T10:10:04.664Z,26.32
2023-05-22T10:11:04.701Z,26.33
2023-05-22T10:12:04.835Z,26.34
2023-05-22T10:13:04.704Z,26.35
2023-05-22T10:14:04.702Z,26.35
2023-05-22T10:15:04.748Z,26.37
2023-05-22T10:16:04.829Z,26.37
2023-05-22T10:17:04.946Z,26.39
2023-05-22T10:18:04.783Z,26.39
2023-05-22T10:19:05.249Z,26.39
2023-05-22T10:20:04.767Z,26.40
2023-05-22T10:21:04.784Z,26.41
2023-05-22T10:22:04.745Z,26.41
2023-05-22T10:23:04.748Z,26.42
2023-05-22T10:24:04.793Z,26.43
2023-05-22T10:25:04.849Z,26.44
2023-05-22T10:26:04.822Z,26.47
2023-05-22T10:27:04.848Z,26.47
2023-05-22T10:28:04.838Z,26.47
2023-05-22T10:29:04.860Z,26.48
2023-05-22T10:30:04.861Z,26.49
2023-05-22T10:31:04.851Z,26.51
2023-05-22T10:32:05.361Z,26.52
2023-05-22T10:33:04.980Z,26.53
2023-05-22T10:34:04.924Z,26.54
2023-05-22T10:35:04.973Z,26.54
2023-05-22T10:36:04.941Z,26.55
2023-05-22T10:37:16.651Z,26.55
2023-05-22T10:38:05.937Z,26.53
2023-05-22T10:39:04.899Z,26.51
2023-05-22T10:40:05.023Z,26.54
2023-05-22T10:41:04.938Z,26.56
2023-05-22T10:42:05.378Z,26.59
2023-05-22T10:43:04.979Z,26.63
2023-05-22T10:44:05.001Z,26.66
2023-05-22T10:45:04.981Z,26.70
2023-05-22T10:46:05.061Z,26.72
2023-05-22T10:47:05.384Z,26.76
2023-05-22T10:48:05.365Z,26.77
2023-05-22T10:49:05.033Z,26.79
2023-05-22T10:50:05.047Z,26.80
2023-05-22T10:51:05.134Z,26.81
2023-05-22T10:52:05.374Z,26.83
2023-05-22T10:53:05.070Z,26.84
2023-05-22T10:54:05.071Z,26.86
2023-05-22T10:55:05.071Z,26.86
2023-05-22T10:56:05.091Z,26.86
2023-05-22T10:57:05.386Z,26.85
2023-05-22T10:58:05.235Z,26.87
2023-05-22T10:59:05.198Z,26.87
2023-05-22T11:00:05.108Z,26.89
2023-05-22T11:01:05.107Z,26.89
2023-05-22T11:02:05.522Z,26.88
2023-05-22T11:03:16.561Z,26.88
2023-05-22T11:04:06.104Z,26.88
2023-05-22T11:05:05.146Z,26.89
2023-05-22T11:06:05.026Z,26.90
2023-05-22T11:07:05.178Z,26.88
2023-05-22T11:08:04.981Z,26.89
2023-05-22T11:09:04.941Z,26.90
2023-05-22T11:10:04.886Z,26.90
2023-05-22T11:11:04.878Z,26.90
2023-05-22T11:12:04.892Z,26.89
2023-05-22T11:13:04.809Z,26.90
2023-05-22T11:14:04.785Z,26.89
2023-05-22T11:15:04.735Z,26.89
2023-05-22T11:16:04.683Z,26.88
2023-05-22T11:17:04.684Z,26.89
2023-05-22T11:18:04.968Z,26.88
2023-05-22T11:19:21.276Z,26.90
2023-05-22T11:20:05.945Z,26.89
2023-05-22T11:21:04.598Z,26.88
2023-05-22T11:22:04.557Z,26.88
2023-05-22T11:23:04.596Z,26.88
2023-05-22T11:24:04.495Z,26.88
2023-05-22T11:25:04.437Z,26.87
2023-05-22T11:26:04.404Z,26.86
2023-05-22T11:27:04.420Z,26.84
2023-05-22T11:28:04.386Z,26.74
2023-05-22T11:29:04.290Z,26.68
2023-05-22T11:30:04.328Z,26.66
2023-05-22T11:31:04.306Z,26.65
2023-05-22T11:32:04.303Z,26.69
2023-05-22T11:33:04.449Z,26.75
2023-05-22T11:34:04.299Z,26.77
2023-05-22T11:35:04.286Z,26.78
2023-05-22T11:36:04.264Z,26.79
2023-05-22T11:37:04.302Z,26.79
2023-05-22T11:38:04.396Z,26.79
2023-05-22T11:39:04.349Z,26.79
2023-05-22T11:40:04.319Z,26.78
2023-05-22T11:41:04.332Z,26.78
2023-05-22T11:42:04.328Z,26.78
2023-05-22T11:43:04.355Z,26.78
2023-05-22T11:44:04.372Z,26.77
2023-05-22T11:45:04.323Z,26.76
2023-05-22T11:46:04.354Z,26.76
2023-05-22T11:47:04.348Z,26.75
2023-05-22T11:48:04.386Z,26.74
2023-05-22T11:49:04.315Z,26.73
2023-05-22T11:50:04.377Z,26.72
2023-05-22T11:51:04.381Z,26.73
2023-05-22T11:52:04.370Z,26.71
2023-05-22T11:53:04.445Z,26.72
2023-05-22T11:54:04.468Z,26.71
2023-05-22T11:55:04.550Z,26.70
2023-05-22T11:56:04.489Z,26.69
2023-05-22T11:57:04.493Z,26.68
2023-05-22T11:58:04.488Z,26.67
2023-05-22T11:59:04.496Z,26.65
2023-05-22T12:00:04.505Z,26.64
2023-05-22T12:01:04.508Z,26.64
2023-05-22T12:02:04.497Z,26.64
2023-05-22T12:03:04.615Z,26.63
2023-05-22T12:04:04.711Z,26.62
2023-05-22T12:05:04.572Z,26.62
2023-05-22T12:06:04.638Z,26.62
2023-05-22T12:07:04.550Z,26.61
2023-05-22T12:08:04.597Z,26.61
2023-05-22T12:09:04.603Z,26.60
2023-05-22T12:10:04.630Z,26.57
2023-05-22T12:11:04.725Z,26.56
2023-05-22T12:12:04.674Z,26.54
2023-05-22T12:13:04.675Z,26.51
2023-05-22T12:14:04.706Z,26.49
2023-05-22T12:15:04.702Z,26.47
2023-05-22T12:16:04.744Z,26.45
2023-05-22T12:17:04.712Z,26.45
2023-05-22T12:18:04.768Z,26.44
2023-05-22T12:19:04.775Z,26.44
2023-05-22T12:20:04.735Z,26.44
2023-05-22T12:21:04.697Z,26.44
2023-05-22T12:22:04.719Z,26.44
2023-05-22T12:23:04.757Z,26.46
2023-05-22T12:24:04.767Z,26.46
2023-05-22T12:25:04.758Z,26.44
2023-05-22T12:26:04.736Z,26.45
2023-05-22T12:27:04.836Z,26.45
2023-05-22T12:28:04.752Z,26.45
2023-05-22T12:29:04.757Z,26.45
2023-05-22T12:30:04.738Z,26.45
2023-05-22T12:31:04.798Z,26.46
2023-05-22T12:32:04.790Z,26.45
2023-05-22T12:33:04.734Z,26.46
2023-05-22T12:34:04.764Z,26.44
2023-05-22T12:35:04.727Z,26.44
2023-05-22T12:36:04.734Z,26.43
2023-05-22T12:37:04.774Z,26.43
2023-05-22T12:38:04.691Z,26.43
2023-05-22T12:39:04.702Z,26.43
2023-05-22T12:40:04.698Z,26.43
2023-05-22T12:41:04.707Z,26.43
2023-05-22T12:42:04.714Z,26.42
2023-05-22T12:43:04.843Z,26.41
2023-05-22T12:44:04.668Z,26.41
2023-05-22T12:45:04.674Z,26.40
2023-05-22T12:46:04.765Z,26.40
2023-05-22T12:47:04.702Z,26.40
2023-05-22T12:48:04.757Z,26.39
2023-05-22T12:49:04.692Z,26.39
2023-05-22T12:50:04.690Z,26.39
2023-05-22T12:51:04.722Z,26.38
2023-05-22T12:52:04.686Z,26.37
2023-05-22T12:53:04.660Z,26.37
2023-05-22T12:54:04.665Z,26.37